Time;durP1;ratioP1;P1;durP2;ratioP2;P2;SDS_P1;SDS_P2;PMS_P1;PMS_P2;Temp;Humidity;BMP_temperature;BMP_pressure;BME280_temperature;BME280_humidity;BME280_pressure;Samples;Min_cycle;Max_cycle;Signal;HPM_P1;HPM_P2
2021/03/05 00:00:21;;;;;;;;;;;;;;;11.70;55.66;100902.88;5062193;28;19913;-81
2021/03/05 00:03:08;;;;;;;;;;;;;;;11.63;55.68;100909.94;5043190;28;19913;-81
2021/03/05 00:05:53;;;;;;;;;;;;;;;11.62;55.77;100902.88;5052747;28;19912;-81
2021/03/05 00:08:38;;;;;;;;;;;;;;;11.64;55.62;100900.63;5049978;28;19916;-81
2021/03/05 00:11:23;;;;;;;;;;;;;;;11.55;55.70;100897.88;5064852;28;19913;-81
2021/03/05 00:14:07;;;;;;;;;;;;;;;11.58;55.34;100894.50;5047355;28;19912;-81
2021/03/05 00:16:51;;;;;;;;;;;;;;;11.58;55.55;100889.06;5067114;28;19912;-81
2021/03/05 00:19:36;;;;;;;;;;;;;;;11.59;55.45;100888.75;5070598;28;19913;-81
2021/03/05 00:22:21;;;;;;;;;;;;;;;11.58;55.01;100886.34;5053878;28;19912;-80
2021/03/05 00:25:05;;;;;;;;;;;;;;;11.59;55.24;100879.78;5058354;28;19912;-80
2021/03/05 00:27:50;;;;;;;;;;;;;;;11.58;55.25;100889.88;5051239;28;19925;-81
2021/03/05 00:30:36;;;;;;;;;;;;;;;11.58;55.14;100883.63;5049678;28;19912;-80
2021/03/05 00:33:20;;;;;;;;;;;;;;;11.66;54.91;100882.03;5067118;28;20353;-81
2021/03/05 00:36:06;;;;;;;;;;;;;;;11.65;54.84;100881.25;5048456;28;19912;-81
2021/03/05 00:38:51;;;;;;;;;;;;;;;11.66;54.73;100874.69;5051642;28;19912;-80
2021/03/05 00:41:35;;;;;;;;;;;;;;;11.66;54.75;100879.31;5066514;28;19913;-80
2021/03/05 00:44:21;;;;;;;;;;;;;;;11.58;55.08;100867.28;5046498;28;20394;-80
2021/03/05 00:47:06;;;;;;;;;;;;;;;11.55;55.08;100878.81;5053753;28;19916;-81
2021/03/05 00:49:50;;;;;;;;;;;;;;;11.61;55.02;100872.09;5044890;28;19912;-81
2021/03/05 00:52:35;;;;;;;;;;;;;;;11.59;55.05;100864.25;5051298;28;19912;-80
2021/03/05 00:55:21;;;;;;;;;;;;;;;11.47;55.28;100866.00;5047217;28;20302;-80
2021/03/05 00:58:09;;;;;;;;;;;;;;;11.42;55.22;100852.53;5051309;28;19912;-81
2021/03/05 01:00:55;;;;;;;;;;;;;;;11.41;55.07;100861.81;5068039;28;20371;-80
2021/03/05 01:03:40;;;;;;;;;;;;;;;11.40;55.13;100865.66;5047380;28;19912;-79
2021/03/05 01:06:25;;;;;;;;;;;;;;;11.25;55.32;100861.44;5044150;28;19913;-80
2021/03/05 01:09:14;;;;;;;;;;;;;;;11.32;55.37;100866.44;5055654;28;20304;-81
2021/03/05 01:11:58;;;;;;;;;;;;;;;11.23;55.34;100865.59;5049350;28;20379;-80
2021/03/05 01:14:43;;;;;;;;;;;;;;;11.28;54.75;100862.72;5054030;28;19913;-79
2021/03/05 01:17:27;;;;;;;;;;;;;;;11.28;55.04;100858.09;5034166;28;19912;-81
2021/03/05 01:20:19;;;;;;;;;;;;;;;11.29;55.32;100853.44;5072622;28;19916;-80
2021/03/05 01:23:04;;;;;;;;;;;;;;;11.30;54.72;100853.13;5051935;28;19913;-80
2021/03/05 01:25:49;;;;;;;;;;;;;;;11.13;55.11;100844.91;5063076;28;19912;-80
2021/03/05 01:28:35;;;;;;;;;;;;;;;11.19;55.39;100848.28;5044268;28;19917;-80
2021/03/05 01:31:19;;;;;;;;;;;;;;;11.25;54.71;100850.56;5063457;28;19917;-81
2021/03/05 01:34:05;;;;;;;;;;;;;;;11.23;54.69;100844.63;5060957;28;20310;-82
2021/03/05 01:36:50;;;;;;;;;;;;;;;11.14;54.70;100841.06;5052114;28;19912;-81
2021/03/05 01:39:34;;;;;;;;;;;;;;;11.66;52.97;100843.91;5050448;28;19912;-81
2021/03/05 01:42:19;;;;;;;;;;;;;;;11.52;53.15;100841.34;5043289;28;19947;-80
2021/03/05 01:45:14;;;;;;;;;;;;;;;11.54;52.76;100834.44;5044341;28;20282;-80
2021/03/05 01:48:01;;;;;;;;;;;;;;;11.32;53.87;100834.56;5051499;28;19920;-80
2021/03/05 01:51:00;;;;;;;;;;;;;;;11.40;53.53;100830.25;5046146;28;19913;-80
2021/03/05 01:53:45;;;;;;;;;;;;;;;11.28;53.84;100830.84;5062617;28;19912;-81
2021/03/05 01:56:37;;;;;;;;;;;;;;;11.64;53.03;100827.06;5048382;28;19916;-79
2021/03/05 01:59:29;;;;;;;;;;;;;;;11.34;53.87;100823.34;5046167;28;19913;-80
2021/03/05 02:02:13;;;;;;;;;;;;;;;11.30;54.02;100823.19;5037529;28;19920;-81
2021/03/05 02:04:58;;;;;;;;;;;;;;;11.26;54.36;100826.88;5072706;22;19921;-79
2021/03/05 02:07:42;;;;;;;;;;;;;;;11.40;53.90;100827.53;5052510;28;20299;-79
2021/03/05 02:10:27;;;;;;;;;;;;;;;11.50;53.70;100828.03;5043448;28;19912;-80
2021/03/05 02:13:12;;;;;;;;;;;;;;;11.55;53.65;100821.63;5054555;28;19913;-79
2021/03/05 02:16:00;;;;;;;;;;;;;;;11.38;54.73;100810.69;5025360;28;20335;-80
2021/03/05 02:19:00;;;;;;;;;;;;;;;11.53;54.14;100812.97;5045287;28;19912;-79
2021/03/05 02:22:02;;;;;;;;;;;;;;;11.24;55.30;100805.41;5044962;28;19921;-79
2021/03/05 02:25:05;;;;;;;;;;;;;;;11.16;55.53;100800.75;5043871;28;19912;-79
2021/03/05 02:27:53;;;;;;;;;;;;;;;11.19;56.08;100800.09;5031928;28;19917;-79
2021/03/05 02:30:58;;;;;;;;;;;;;;;11.21;55.85;100800.59;5027760;28;19913;-79
2021/03/05 02:33:50;;;;;;;;;;;;;;;11.27;55.13;100791.16;5019721;28;19913;-79
2021/03/05 02:36:40;;;;;;;;;;;;;;;11.08;56.12;100794.16;5027211;28;19913;-79
2021/03/05 02:39:29;;;;;;;;;;;;;;;11.03;56.40;100786.13;5044530;28;19913;-79
2021/03/05 02:42:18;;;;;;;;;;;;;;;10.95;56.78;100786.94;5013470;28;19917;-79
2021/03/05 02:45:07;;;;;;;;;;;;;;;10.96;56.75;100782.28;5013645;28;19917;-79
2021/03/05 02:47:54;;;;;;;;;;;;;;;11.00;56.68;100778.63;5028132;28;19917;-79
2021/03/05 02:50:42;;;;;;;;;;;;;;;10.98;56.52;100783.56;5027687;28;19913;-79
2021/03/05 02:53:28;;;;;;;;;;;;;;;10.84;56.85;100772.00;5016729;28;20303;-79
2021/03/05 02:56:15;;;;;;;;;;;;;;;10.75;57.29;100775.81;5030113;28;20391;-79
2021/03/05 02:59:00;;;;;;;;;;;;;;;10.79;57.02;100779.50;5041331;28;19916;-79
2021/03/05 03:01:46;;;;;;;;;;;;;;;10.78;57.05;100777.88;5025250;28;19913;-79
2021/03/05 03:04:33;;;;;;;;;;;;;;;10.73;57.07;100781.56;5041627;28;19913;-79
2021/03/05 03:07:18;;;;;;;;;;;;;;;10.67;57.15;100780.09;5031627;28;19913;-79
2021/03/05 03:10:05;;;;;;;;;;;;;;;10.67;57.01;100772.72;5041587;28;19921;-79
2021/03/05 03:12:58;;;;;;;;;;;;;;;10.81;56.63;100771.84;5040486;28;20450;-79
2021/03/05 03:15:42;;;;;;;;;;;;;;;10.45;57.94;100774.72;5041303;28;19913;-78
2021/03/05 03:18:27;;;;;;;;;;;;;;;10.08;59.12;100771.28;5012496;28;19913;-79
2021/03/05 03:21:12;;;;;;;;;;;;;;;10.46;58.58;100776.34;5040233;28;19916;-79
2021/03/05 03:23:57;;;;;;;;;;;;;;;10.61;57.74;100781.38;5043076;28;19913;-79
2021/03/05 03:26:42;;;;;;;;;;;;;;;10.59;58.17;100783.59;5040766;28;19912;-79
2021/03/05 03:29:27;;;;;;;;;;;;;;;10.53;58.03;100779.41;5028032;28;20299;-79
2021/03/05 03:32:12;;;;;;;;;;;;;;;10.39;58.27;100775.97;5010803;28;19913;-79
2021/03/05 03:34:57;;;;;;;;;;;;;;;10.56;57.66;100781.50;5042335;28;19913;-79
2021/03/05 03:37:43;;;;;;;;;;;;;;;10.54;58.20;100783.72;5025200;28;19913;-79
2021/03/05 03:40:28;;;;;;;;;;;;;;;10.64;58.11;100788.88;5043658;28;19912;-79
2021/03/05 03:43:13;;;;;;;;;;;;;;;10.63;57.82;100779.91;5039238;28;20290;-79
2021/03/05 03:45:58;;;;;;;;;;;;;;;10.82;57.93;100779.66;5040728;28;19913;-79
2021/03/05 03:48:50;;;;;;;;;;;;;;;10.68;57.93;100778.97;5013465;28;19925;-79
2021/03/05 03:51:39;;;;;;;;;;;;;;;10.61;58.06;100778.66;5014847;28;19913;-79
2021/03/05 03:54:24;;;;;;;;;;;;;;;10.21;59.30;100778.59;5040316;28;20291;-79
2021/03/05 03:57:12;;;;;;;;;;;;;;;10.33;59.41;100767.16;5016359;28;19913;-79
2021/03/05 03:59:58;;;;;;;;;;;;;;;10.55;58.98;100774.44;5042583;28;19913;-78
2021/03/05 04:03:04;;;;;;;;;;;;;;;10.65;58.27;100771.47;5031788;28;19912;-78
2021/03/05 04:05:51;;;;;;;;;;;;;;;10.72;58.21;100769.06;5025391;28;20379;-81
2021/03/05 04:08:38;;;;;;;;;;;;;;;10.34;59.38;100768.75;5039630;28;19917;-79
2021/03/05 04:11:23;;;;;;;;;;;;;;;10.52;58.38;100766.91;5043349;28;20294;-79
2021/03/05 04:14:08;;;;;;;;;;;;;;;10.54;58.53;100764.69;5023700;28;19913;-79
2021/03/05 04:16:54;;;;;;;;;;;;;;;10.53;58.40;100763.06;5040945;28;20335;-80
2021/03/05 04:19:39;;;;;;;;;;;;;;;10.51;58.37;100763.41;5028200;28;19921;-79
2021/03/05 04:22:25;;;;;;;;;;;;;;;10.48;59.16;100760.50;5044103;28;19912;-79
2021/03/05 04:25:12;;;;;;;;;;;;;;;10.57;59.30;100758.59;5027842;28;19924;-79
2021/03/05 04:27:57;;;;;;;;;;;;;;;10.56;59.43;100765.19;5042876;28;19936;-79
2021/03/05 04:30:42;;;;;;;;;;;;;;;10.51;59.21;100773.47;5031859;28;19913;-80
2021/03/05 04:33:27;;;;;;;;;;;;;;;10.69;59.22;100770.50;5041608;28;19917;-79
2021/03/05 04:36:12;;;;;;;;;;;;;;;10.66;58.71;100768.44;5043776;28;19913;-79
2021/03/05 04:38:56;;;;;;;;;;;;;;;10.66;59.41;100773.06;5029374;28;19913;-79
2021/03/05 04:41:40;;;;;;;;;;;;;;;10.72;59.22;100766.34;5044151;28;19913;-78
2021/03/05 04:44:26;;;;;;;;;;;;;;;10.59;59.56;100772.72;5020100;28;19917;-78
2021/03/05 04:47:10;;;;;;;;;;;;;;;10.61;59.15;100768.56;5042991;28;19913;-79
2021/03/05 04:49:57;;;;;;;;;;;;;;;10.62;59.16;100763.91;5043675;28;20367;-78
2021/03/05 04:52:41;;;;;;;;;;;;;;;10.60;58.72;100761.53;5044673;28;20375;-79
2021/03/05 04:55:27;;;;;;;;;;;;;;;10.67;58.79;100769.22;5044307;28;19912;-79
2021/03/05 04:58:11;;;;;;;;;;;;;;;10.71;58.73;100767.50;5033053;28;19913;-79
2021/03/05 05:00:56;;;;;;;;;;;;;;;10.62;59.10;100763.91;5042177;28;19912;-79
2021/03/05 05:03:40;;;;;;;;;;;;;;;10.63;59.27;100765.53;5043118;28;19913;-79
2021/03/05 05:06:24;;;;;;;;;;;;;;;10.74;59.22;100761.41;5032781;28;19913;-79
2021/03/05 05:09:09;;;;;;;;;;;;;;;10.90;58.99;100769.94;5046022;28;19917;-79
2021/03/05 05:11:54;;;;;;;;;;;;;;;10.92;58.69;100759.56;5028676;28;19912;-79
2021/03/05 05:14:38;;;;;;;;;;;;;;;10.93;57.88;100761.94;5042138;28;19913;-78
2021/03/05 05:17:24;;;;;;;;;;;;;;;10.73;58.30;100763.31;5029943;28;19921;-79
2021/03/05 05:20:09;;;;;;;;;;;;;;;10.76;58.29;100764.63;5035405;28;19921;-79
2021/03/05 05:22:54;;;;;;;;;;;;;;;10.75;58.49;100759.50;5039871;28;19916;-79
2021/03/05 05:25:38;;;;;;;;;;;;;;;10.30;60.46;100756.91;5045726;28;20283;-79
2021/03/05 05:28:22;;;;;;;;;;;;;;;10.45;59.94;100753.78;5043600;28;19916;-79
2021/03/05 05:31:07;;;;;;;;;;;;;;;10.65;59.69;100757.84;5027727;28;19913;-79
2021/03/05 05:33:52;;;;;;;;;;;;;;;10.79;58.67;100750.38;5044332;28;19912;-79
2021/03/05 05:36:36;;;;;;;;;;;;;;;10.66;58.70;100757.56;5031796;28;19913;-80
2021/03/05 05:39:20;;;;;;;;;;;;;;;10.58;59.30;100752.06;5045259;28;19912;-79
2021/03/05 05:42:08;;;;;;;;;;;;;;;10.57;59.36;100745.00;5024792;28;20375;-78
2021/03/05 05:44:53;;;;;;;;;;;;;;;10.61;59.15;100748.72;5027802;28;20583;-79
2021/03/05 05:47:37;;;;;;;;;;;;;;;10.60;59.18;100756.09;5019845;28;19912;-79
2021/03/05 05:50:23;;;;;;;;;;;;;;;10.70;58.25;100747.66;5026082;28;20300;-80
2021/03/05 05:53:08;;;;;;;;;;;;;;;10.62;58.61;100747.59;5030854;28;19913;-79
2021/03/05 05:55:53;;;;;;;;;;;;;;;10.73;58.12;100744.28;5033204;28;19913;-79
2021/03/05 05:58:38;;;;;;;;;;;;;;;10.72;58.69;100748.13;5026786;28;19913;-80
2021/03/05 06:01:23;;;;;;;;;;;;;;;10.63;58.75;100751.91;5035764;28;20387;-79
2021/03/05 06:04:08;;;;;;;;;;;;;;;10.66;58.77;100754.03;5044929;28;19912;-80
2021/03/05 06:06:53;;;;;;;;;;;;;;;10.65;58.92;100752.41;5032931;28;19921;-80
2021/03/05 06:09:38;;;;;;;;;;;;;;;10.71;58.96;100745.72;5028144;28;19917;-81
2021/03/05 06:12:22;;;;;;;;;;;;;;;10.54;59.16;100759.25;5034124;28;19913;-81
2021/03/05 06:15:07;;;;;;;;;;;;;;;10.34;60.05;100757.88;5042682;28;19913;-80
2021/03/05 06:17:52;;;;;;;;;;;;;;;10.43;59.55;100756.00;5037957;28;19917;-80
2021/03/05 06:20:44;;;;;;;;;;;;;;;10.48;59.56;100765.94;5033798;28;19913;-80
2021/03/05 06:23:29;;;;;;;;;;;;;;;10.60;59.14;100761.53;5039819;28;19913;-79
2021/03/05 06:26:14;;;;;;;;;;;;;;;10.56;58.91;100767.91;5042396;28;19921;-81
2021/03/05 06:29:01;;;;;;;;;;;;;;;10.52;59.17;100765.00;5019474;28;20117;-81
2021/03/05 06:31:53;;;;;;;;;;;;;;;10.70;58.82;100768.59;5028731;28;20534;-80
2021/03/05 06:34:48;;;;;;;;;;;;;;;10.66;59.20;100767.63;5029375;28;19932;-79
2021/03/05 06:37:47;;;;;;;;;;;;;;;10.73;58.91;100773.41;5042903;28;19912;-87
2021/03/05 06:40:33;;;;;;;;;;;;;;;10.82;58.39;100766.06;5031600;28;20295;-86
2021/03/05 06:43:18;;;;;;;;;;;;;;;10.77;58.87;100774.38;5028433;28;19912;-85
2021/03/05 06:46:03;;;;;;;;;;;;;;;10.82;58.68;100771.50;5053266;28;20417;-86
2021/03/05 06:48:51;;;;;;;;;;;;;;;10.83;58.74;100777.75;5045921;28;19917;-86
2021/03/05 06:51:37;;;;;;;;;;;;;;;10.84;59.40;100782.06;5049522;28;19912;-87
2021/03/05 06:54:28;;;;;;;;;;;;;;;10.87;58.97;100779.53;5030881;28;19913;-86
2021/03/05 06:57:13;;;;;;;;;;;;;;;10.86;59.42;100775.22;5040018;28;19912;-86
2021/03/05 06:59:58;;;;;;;;;;;;;;;10.74;59.89;100783.16;5037728;28;19912;-86
2021/03/05 07:02:44;;;;;;;;;;;;;;;10.75;59.84;100783.97;5032559;28;19913;-84
2021/03/05 07:05:48;;;;;;;;;;;;;;;10.69;60.47;100788.75;5043181;28;19913;-85
2021/03/05 07:08:37;;;;;;;;;;;;;;;10.93;59.66;100791.88;5048284;28;19917;-85
2021/03/05 07:11:33;;;;;;;;;;;;;;;10.71;60.16;100784.59;5033787;28;19921;-84
2021/03/05 07:14:18;;;;;;;;;;;;;;;10.91;59.62;100790.59;5033155;28;19913;-85
2021/03/05 07:17:05;;;;;;;;;;;;;;;10.78;59.87;100795.00;5049960;28;19917;-85
2021/03/05 07:19:49;;;;;;;;;;;;;;;10.77;60.82;100787.19;5029210;28;19913;-85
2021/03/05 07:22:36;;;;;;;;;;;;;;;10.86;60.06;100786.09;5032879;28;19912;-85
2021/03/05 07:25:23;;;;;;;;;;;;;;;10.90;60.40;100792.50;5042689;28;19913;-85
2021/03/05 07:28:10;;;;;;;;;;;;;;;11.02;60.07;100784.53;5034143;28;20290;-85
2021/03/05 07:30:56;;;;;;;;;;;;;;;11.02;59.64;100784.53;5049257;28;19913;-85
2021/03/05 07:33:43;;;;;;;;;;;;;;;11.04;59.57;100790.47;5045124;28;19913;-85
2021/03/05 07:36:29;;;;;;;;;;;;;;;11.04;59.27;100793.19;5034182;28;19913;-86
2021/03/05 07:39:19;;;;;;;;;;;;;;;11.00;60.16;100802.28;5033425;28;19909;-85
2021/03/05 07:42:04;;;;;;;;;;;;;;;10.97;60.13;100803.72;5052276;28;19913;-86
2021/03/05 07:44:58;;;;;;;;;;;;;;;11.12;59.54;100799.78;5034513;28;19917;-83
2021/03/05 07:47:44;;;;;;;;;;;;;;;11.07;59.08;100795.25;5049297;28;19912;-86
2021/03/05 07:50:29;;;;;;;;;;;;;;;11.12;59.55;100806.00;5046749;28;19917;-86
2021/03/05 07:53:14;;;;;;;;;;;;;;;11.22;59.47;100799.47;5029018;28;19916;-85
2021/03/05 07:55:58;;;;;;;;;;;;;;;11.27;59.22;100804.78;5033758;28;19921;-84
2021/03/05 07:58:45;;;;;;;;;;;;;;;11.26;58.54;100799.66;5036339;28;19921;-84
2021/03/05 08:01:48;;;;;;;;;;;;;;;11.33;58.31;100808.13;5049458;28;19913;-83
2021/03/05 08:04:49;;;;;;;;;;;;;;;11.24;59.09;100807.31;5056201;22;19912;-76
2021/03/05 08:07:34;;;;;;;;;;;;;;;11.29;59.19;100804.44;5016059;28;19917;-76
2021/03/05 08:10:38;;;;;;;;;;;;;;;11.28;59.16;100806.34;5018520;28;19917;-75
2021/03/05 08:13:45;;;;;;;;;;;;;;;11.46;58.61;100804.47;5020869;28;19913;-76
2021/03/05 08:16:30;;;;;;;;;;;;;;;11.55;58.59;100806.09;5018295;28;19921;-76
2021/03/05 08:19:16;;;;;;;;;;;;;;;11.54;58.56;100806.41;4999972;28;19913;-76
2021/03/05 08:22:01;;;;;;;;;;;;;;;11.62;58.17;100808.34;4995482;28;19913;-77
2021/03/05 08:24:47;;;;;;;;;;;;;;;11.55;58.63;100806.09;5003645;28;19913;-76
2021/03/05 08:27:36;;;;;;;;;;;;;;;11.49;58.52;100804.63;5014956;28;20380;-76
2021/03/05 08:30:40;;;;;;;;;;;;;;;11.57;58.66;100805.78;4996424;28;20392;-76
2021/03/05 08:33:26;;;;;;;;;;;;;;;11.64;58.37;100800.63;5002872;28;20292;-77
2021/03/05 08:36:11;;;;;;;;;;;;;;;11.71;58.42;100798.25;5016659;28;19913;-77
2021/03/05 08:39:16;;;;;;;;;;;;;;;11.75;57.79;100804.69;5004206;28;20448;-77
2021/03/05 08:42:20;;;;;;;;;;;;;;;11.73;57.94;100800.69;5002399;28;19913;-77
2021/03/05 08:45:15;;;;;;;;;;;;;;;11.79;57.83;100804.84;5013469;28;20300;-79
2021/03/05 08:48:00;;;;;;;;;;;;;;;11.87;57.80;100793.94;4990605;28;19913;-77
2021/03/05 08:50:47;;;;;;;;;;;;;;;11.88;57.47;100794.75;5000182;28;19917;-79
2021/03/05 08:53:42;;;;;;;;;;;;;;;11.91;57.54;100797.63;5004592;28;19918;-79
2021/03/05 08:56:27;;;;;;;;;;;;;;;11.98;57.82;100797.16;4999589;28;19913;-79
2021/03/05 08:59:13;;;;;;;;;;;;;;;11.96;57.62;100791.22;5015965;28;19917;-79
2021/03/05 09:01:58;;;;;;;;;;;;;;;12.04;57.71;100793.09;5015599;28;20404;-79
2021/03/05 09:04:42;;;;;;;;;;;;;;;12.04;57.49;100798.56;4998446;28;19913;-79
2021/03/05 09:07:29;;;;;;;;;;;;;;;12.07;56.78;100800.66;5003784;28;19913;-79
2021/03/05 09:10:14;;;;;;;;;;;;;;;12.07;56.95;100797.94;5000855;28;19917;-77
2021/03/05 09:13:02;;;;;;;;;;;;;;;12.17;56.53;100792.16;4987773;28;19913;-79
2021/03/05 09:15:48;;;;;;;;;;;;;;;12.06;56.85;100779.97;5013492;28;19913;-78
2021/03/05 09:18:33;;;;;;;;;;;;;;;12.19;56.52;100789.09;5003736;28;19913;-79
2021/03/05 09:21:18;;;;;;;;;;;;;;;12.23;56.42;100785.41;4988072;28;19921;-79
2021/03/05 09:24:03;;;;;;;;;;;;;;;12.36;55.90;100794.50;5004876;28;19913;-77
2021/03/05 09:26:48;;;;;;;;;;;;;;;12.38;55.63;100795.78;4997996;28;19914;-77
2021/03/05 09:29:32;;;;;;;;;;;;;;;12.50;55.51;100794.28;4994503;28;19921;-77
2021/03/05 09:32:18;;;;;;;;;;;;;;;12.37;56.22;100785.19;4999144;28;19918;-76
2021/03/05 09:35:03;;;;;;;;;;;;;;;12.39;56.15;100793.88;5014237;28;20384;-76
2021/03/05 09:37:47;;;;;;;;;;;;;;;12.43;56.22;100789.34;5018424;28;20368;-76
2021/03/05 09:40:33;;;;;;;;;;;;;;;12.37;56.17;100785.19;4998663;28;20299;-76
2021/03/05 09:43:18;;;;;;;;;;;;;;;12.44;55.92;100788.22;5002336;28;19921;-76
2021/03/05 09:46:20;;;;;;;;;;;;;;;12.38;56.82;100786.81;4999480;28;19914;-78
2021/03/05 09:49:24;;;;;;;;;;;;;;;12.49;56.66;100784.53;4998872;28;19918;-76
2021/03/05 09:52:26;;;;;;;;;;;;;;;12.67;55.79;100775.13;4997044;28;20377;-77
2021/03/05 09:55:22;;;;;;;;;;;;;;;12.65;55.61;100774.66;4997053;28;19917;-78
2021/03/05 09:58:10;;;;;;;;;;;;;;;12.66;55.46;100773.53;5014309;28;20609;-77
2021/03/05 10:00:56;;;;;;;;;;;;;;;12.72;56.06;100770.31;5012927;28;19913;-77
2021/03/05 10:03:41;;;;;;;;;;;;;;;12.82;55.89;100771.84;5006290;28;19913;-77
2021/03/05 10:06:26;;;;;;;;;;;;;;;12.86;55.55;100776.31;4999615;28;19913;-77
2021/03/05 10:09:12;;;;;;;;;;;;;;;12.94;55.31;100776.63;5012328;28;19917;-77
2021/03/05 10:11:57;;;;;;;;;;;;;;;12.93;55.12;100775.03;5001088;28;20533;-76
2021/03/05 10:14:41;;;;;;;;;;;;;;;12.97;54.74;100774.03;4986918;28;20303;-77
2021/03/05 10:17:26;;;;;;;;;;;;;;;13.11;54.79;100771.88;5012536;28;20283;-78
2021/03/05 10:20:11;;;;;;;;;;;;;;;13.25;53.83;100772.47;4989355;28;19929;-76
2021/03/05 10:22:55;;;;;;;;;;;;;;;13.24;53.13;100776.31;4991552;28;19914;-77
2021/03/05 10:25:48;;;;;;;;;;;;;;;13.44;54.09;100772.00;4993836;28;20300;-77
2021/03/05 10:28:32;;;;;;;;;;;;;;;13.39;53.42;100771.38;5011817;28;20280;-79
2021/03/05 10:31:17;;;;;;;;;;;;;;;13.45;53.80;100773.59;5001748;28;19913;-77
2021/03/05 10:34:01;;;;;;;;;;;;;;;13.55;53.26;100773.19;4999774;28;19913;-77
2021/03/05 10:36:46;;;;;;;;;;;;;;;13.64;52.43;100768.47;4999191;28;19913;-75
2021/03/05 10:39:34;;;;;;;;;;;;;;;13.69;51.84;100771.00;5006305;28;19913;-79
2021/03/05 10:42:21;;;;;;;;;;;;;;;13.78;51.36;100765.44;4991704;28;19914;-77
2021/03/05 10:45:06;;;;;;;;;;;;;;;13.80;51.75;100765.13;4997889;28;19913;-77
2021/03/05 10:47:50;;;;;;;;;;;;;;;13.87;51.62;100757.94;5003437;28;19914;-77
2021/03/05 10:50:35;;;;;;;;;;;;;;;14.00;51.32;100761.53;5000544;28;19918;-76
2021/03/05 10:53:20;;;;;;;;;;;;;;;14.19;52.00;100756.34;5000494;28;19913;-78
2021/03/05 10:56:04;;;;;;;;;;;;;;;14.30;49.33;100754.78;4998874;28;19913;-77
2021/03/05 10:58:49;;;;;;;;;;;;;;;14.40;49.03;100756.31;5014972;28;19913;-78
2021/03/05 11:01:35;;;;;;;;;;;;;;;14.41;48.62;100755.97;5000471;28;20383;-78
2021/03/05 11:04:24;;;;;;;;;;;;;;;14.43;48.38;100747.41;4998850;28;19913;-79
2021/03/05 11:07:09;;;;;;;;;;;;;;;14.37;48.46;100744.13;5004026;28;20383;-77
2021/03/05 11:09:53;;;;;;;;;;;;;;;14.57;48.08;100755.31;5001275;28;19918;-78
2021/03/05 11:12:38;;;;;;;;;;;;;;;14.52;47.95;100748.94;5001088;28;19914;-79
2021/03/05 11:15:23;;;;;;;;;;;;;;;14.65;48.81;100746.19;4985089;28;19925;-75
2021/03/05 11:18:08;;;;;;;;;;;;;;;14.67;48.81;100744.72;4999414;28;19913;-76
2021/03/05 11:20:53;;;;;;;;;;;;;;;14.76;48.08;100742.66;4998045;28;19921;-76
2021/03/05 11:23:37;;;;;;;;;;;;;;;14.72;48.21;100743.69;5012700;28;19913;-76
2021/03/05 11:26:22;;;;;;;;;;;;;;;14.84;48.31;100747.22;4999675;28;20295;-76
2021/03/05 11:29:07;;;;;;;;;;;;;;;14.88;48.25;100739.91;4996048;28;19917;-77
2021/03/05 11:31:52;;;;;;;;;;;;;;;14.97;47.86;100737.06;4996784;28;19913;-77
2021/03/05 11:34:36;;;;;;;;;;;;;;;14.92;47.68;100740.03;5001588;28;19913;-77
2021/03/05 11:37:20;;;;;;;;;;;;;;;15.09;47.61;100728.00;5007075;28;19913;-76
2021/03/05 11:40:06;;;;;;;;;;;;;;;15.17;46.95;100733.38;5007824;28;19913;-79
2021/03/05 11:42:50;;;;;;;;;;;;;;;15.27;46.71;100721.16;4998922;28;19914;-79
2021/03/05 11:45:35;;;;;;;;;;;;;;;15.37;46.18;100726.94;5007398;28;19913;-79
2021/03/05 11:48:20;;;;;;;;;;;;;;;15.33;46.24;100728.78;5004364;28;20280;-77
2021/03/05 11:51:05;;;;;;;;;;;;;;;15.41;46.21;100730.56;5023563;28;19917;-81
2021/03/05 11:53:50;;;;;;;;;;;;;;;15.44;45.77;100731.81;5016158;28;19917;-81
2021/03/05 11:56:35;;;;;;;;;;;;;;;15.30;46.13;100720.44;4988708;28;19913;-78
2021/03/05 11:59:20;;;;;;;;;;;;;;;15.25;46.74;100721.47;5004086;28;19913;-76
2021/03/05 12:02:05;;;;;;;;;;;;;;;15.37;46.99;100718.72;4989677;28;19913;-80
2021/03/05 12:04:49;;;;;;;;;;;;;;;15.59;46.89;100719.38;5008470;28;19914;-83
2021/03/05 12:07:34;;;;;;;;;;;;;;;15.74;46.27;100716.69;5008385;28;19913;-81
2021/03/05 12:10:18;;;;;;;;;;;;;;;15.70;45.97;100720.44;5007263;28;19917;-79
2021/03/05 12:13:04;;;;;;;;;;;;;;;15.82;46.65;100709.44;5009862;28;19918;-80
2021/03/05 12:15:49;;;;;;;;;;;;;;;15.85;46.88;100705.97;5008045;28;19913;-79
2021/03/05 12:18:34;;;;;;;;;;;;;;;15.87;46.11;100706.44;5020340;28;19913;-80
2021/03/05 12:21:18;;;;;;;;;;;;;;;16.00;45.87;100699.72;5006764;28;19913;-81
2021/03/05 12:24:03;;;;;;;;;;;;;;;16.15;46.04;100698.16;5000443;28;19917;-79
2021/03/05 12:26:48;;;;;;;;;;;;;;;16.33;45.96;100690.38;5001269;28;19913;-82
2021/03/05 12:29:33;;;;;;;;;;;;;;;16.42;45.76;100685.50;5008043;28;19921;-78
2021/03/05 12:32:17;;;;;;;;;;;;;;;16.30;45.56;100685.59;4996100;28;19913;-81
2021/03/05 12:35:03;;;;;;;;;;;;;;;16.26;45.31;100691.78;5004637;28;19921;-81
2021/03/05 12:37:47;;;;;;;;;;;;;;;16.29;45.41;100689.50;5011044;28;19913;-80
2021/03/05 12:40:32;;;;;;;;;;;;;;;16.41;45.07;100683.91;5004163;28;19918;-79
2021/03/05 12:43:17;;;;;;;;;;;;;;;16.48;45.59;100679.38;4993620;28;19913;-79
2021/03/05 12:46:01;;;;;;;;;;;;;;;16.63;45.38;100680.56;5004109;28;19917;-80
2021/03/05 12:48:46;;;;;;;;;;;;;;;16.75;44.77;100672.22;5007801;28;19914;-81
2021/03/05 12:51:31;;;;;;;;;;;;;;;16.81;44.18;100673.50;5001927;28;19917;-78
2021/03/05 12:54:16;;;;;;;;;;;;;;;16.82;44.27;100666.06;4991272;28;19913;-76
2021/03/05 12:57:00;;;;;;;;;;;;;;;16.94;43.75;100669.50;5006442;28;19913;-78
2021/03/05 12:59:46;;;;;;;;;;;;;;;16.87;44.05;100669.34;5004215;28;19921;-79
2021/03/05 13:02:31;;;;;;;;;;;;;;;16.91;44.10;100669.44;5001227;28;20299;-78
2021/03/05 13:05:16;;;;;;;;;;;;;;;16.95;44.07;100660.13;4999449;28;19914;-78
2021/03/05 13:08:00;;;;;;;;;;;;;;;16.74;44.04;100647.84;4989250;28;19913;-79
2021/03/05 13:10:45;;;;;;;;;;;;;;;16.75;44.18;100663.97;4994140;28;19917;-80
2021/03/05 13:13:29;;;;;;;;;;;;;;;16.87;47.71;100658.34;4995233;28;19917;-79
2021/03/05 13:16:14;;;;;;;;;;;;;;;17.07;46.64;100672.91;5000960;28;19913;-77
2021/03/05 13:18:59;;;;;;;;;;;;;;;17.19;45.50;100653.53;4993045;28;19913;-78
2021/03/05 13:21:43;;;;;;;;;;;;;;;17.24;45.40;100655.22;4994112;28;19913;-77
2021/03/05 13:24:29;;;;;;;;;;;;;;;17.27;44.24;100660.00;4999444;28;19921;-80
2021/03/05 13:27:14;;;;;;;;;;;;;;;17.31;44.68;100666.34;5005832;28;19913;-80
2021/03/05 13:29:58;;;;;;;;;;;;;;;17.34;44.33;100662.88;5002132;28;19917;-79
2021/03/05 13:32:42;;;;;;;;;;;;;;;17.34;44.26;100660.13;4998469;28;19917;-81
2021/03/05 13:35:28;;;;;;;;;;;;;;;17.35;44.54;100656.22;4998361;28;19909;-78
2021/03/05 13:38:13;;;;;;;;;;;;;;;17.43;44.41;100660.69;4996164;28;19917;-79
2021/03/05 13:41:00;;;;;;;;;;;;;;;17.57;44.28;100661.00;4994296;28;20389;-78
2021/03/05 13:43:44;;;;;;;;;;;;;;;17.60;43.87;100663.03;4998656;28;19913;-77
2021/03/05 13:46:29;;;;;;;;;;;;;;;17.63;44.13;100656.81;4978601;28;19913;-78
2021/03/05 13:49:14;;;;;;;;;;;;;;;17.68;43.98;100661.22;4991852;28;19913;-77
2021/03/05 13:51:58;;;;;;;;;;;;;;;17.58;42.87;100646.06;4997368;28;19913;-78
2021/03/05 13:54:42;;;;;;;;;;;;;;;17.70;43.85;100654.19;5001664;28;19914;-79
2021/03/05 13:57:27;;;;;;;;;;;;;;;17.76;43.73;100651.94;5014285;28;20299;-78
2021/03/05 14:00:11;;;;;;;;;;;;;;;17.83;43.51;100655.59;5006229;28;19913;-78
2021/03/05 14:02:56;;;;;;;;;;;;;;;17.85;42.97;100658.00;5001536;28;20307;-78
2021/03/05 14:05:42;;;;;;;;;;;;;;;17.84;43.08;100653.66;5026299;23;19921;-79
2021/03/05 14:08:27;;;;;;;;;;;;;;;17.85;43.16;100653.31;5056381;28;20299;-80
2021/03/05 14:11:11;;;;;;;;;;;;;;;17.82;43.01;100654.03;5018001;28;20387;-79
2021/03/05 14:13:56;;;;;;;;;;;;;;;17.86;42.46;100654.91;5046069;28;19916;-80